Time;durP1;ratioP1;P1;durP2;ratioP2;P2;SDS_P1;SDS_P2;PMS_P1;PMS_P2;Temp;Humidity;BMP_temperature;BMP_pressure;BME280_temperature;BME280_humidity;BME280_pressure;Samples;Min_cycle;Max_cycle;Signal;HPM_P1;HPM_P2
2021/05/14 00:02:23;;;;;;;0.20;0.10;;;21.60;51.50;;;;;;6244381;28;20116;-76
2021/05/14 00:05:24;;;;;;;0.20;0.20;;;21.60;51.40;;;;;;6244776;28;20277;-76
2021/05/14 00:08:24;;;;;;;1.35;0.10;;;21.60;51.40;;;;;;6244133;28;20430;-76
2021/05/14 00:11:25;;;;;;;0.10;0.10;;;21.60;51.40;;;;;;6239752;28;20030;-76
2021/05/14 00:14:25;;;;;;;0.10;0.10;;;21.60;51.40;;;;;;6242739;28;20041;-76
2021/05/14 00:17:26;;;;;;;0.30;0.30;;;21.60;51.40;;;;;;6243902;28;20392;-76
2021/05/14 00:20:27;;;;;;;0.20;0.10;;;21.60;51.40;;;;;;6243974;28;20060;-76
2021/05/14 00:23:27;;;;;;;0.20;0.20;;;21.60;51.40;;;;;;6231544;28;20028;-76
2021/05/14 00:26:28;;;;;;;0.15;0.15;;;21.60;51.50;;;;;;6243887;28;20034;-76
2021/05/14 00:29:29;;;;;;;0.30;0.22;;;21.60;51.40;;;;;;6243812;28;20399;-76
2021/05/14 00:32:29;;;;;;;0.20;0.20;;;21.60;51.40;;;;;;6243504;28;20068;-76
2021/05/14 00:35:30;;;;;;;0.10;0.10;;;21.60;51.40;;;;;;6241787;28;20061;-76
2021/05/14 00:38:30;;;;;;;0.30;0.20;;;21.60;51.40;;;;;;6243484;28;20053;-76
2021/05/14 00:41:31;;;;;;;0.43;0.20;;;21.60;51.30;;;;;;6242332;28;20099;-76
2021/05/14 00:44:34;;;;;;;0.30;0.30;;;21.60;51.30;;;;;;6243170;28;20026;-76
2021/05/14 00:47:34;;;;;;;0.20;0.20;;;21.60;51.30;;;;;;6243936;28;20029;-76
2021/05/14 00:50:35;;;;;;;0.20;0.20;;;21.60;51.40;;;;;;6243202;28;20026;-76
2021/05/14 00:53:36;;;;;;;0.17;0.17;;;21.60;51.30;;;;;;6242901;28;20112;-76
2021/05/14 00:56:37;;;;;;;0.20;0.20;;;21.60;51.40;;;;;;6242993;28;20029;-76
2021/05/14 00:59:37;;;;;;;0.30;0.20;;;21.60;51.40;;;;;;6243160;28;20029;-76
2021/05/14 01:02:38;;;;;;;0.35;0.35;;;21.60;51.40;;;;;;6239921;28;20510;-77
2021/05/14 01:05:38;;;;;;;0.30;0.20;;;21.60;51.40;;;;;;6243097;28;20029;-76
2021/05/14 01:08:39;;;;;;;0.30;0.30;;;21.60;51.40;;;;;;6242868;28;20500;-76
2021/05/14 01:11:40;;;;;;;0.38;0.20;;;21.60;51.40;;;;;;6237539;28;20025;-76
2021/05/14 01:14:42;;;;;;;0.20;0.20;;;21.60;51.40;;;;;;6240800;28;20447;-76
2021/05/14 01:17:42;;;;;;;0.43;0.30;;;21.60;51.40;;;;;;6242818;28;20049;-76
2021/05/14 01:20:43;;;;;;;1.10;0.20;;;21.60;51.40;;;;;;6240522;28;20480;-76
2021/05/14 01:23:44;;;;;;;0.20;0.20;;;21.60;51.40;;;;;;6242498;28;20249;-76
2021/05/14 01:26:44;;;;;;;0.20;0.20;;;21.60;51.40;;;;;;6242717;28;20511;-76
2021/05/14 01:29:45;;;;;;;0.30;0.30;;;21.60;51.40;;;;;;6240677;28;20543;-76
2021/05/14 01:32:46;;;;;;;0.63;0.40;;;21.60;51.40;;;;;;6243032;28;20109;-76
2021/05/14 01:35:46;;;;;;;0.30;0.30;;;21.60;51.40;;;;;;6242289;28;20411;-75
2021/05/14 01:38:47;;;;;;;0.20;0.20;;;21.60;51.40;;;;;;6241073;28;20029;-76
2021/05/14 01:41:47;;;;;;;0.30;0.30;;;21.60;51.40;;;;;;6242761;28;20033;-76
2021/05/14 01:44:48;;;;;;;0.20;0.20;;;21.60;51.40;;;;;;6241286;28;20061;-76
2021/05/14 01:47:49;;;;;;;0.20;0.20;;;21.60;51.40;;;;;;6240987;28;20041;-76
2021/05/14 01:50:49;;;;;;;0.20;0.20;;;21.60;51.40;;;;;;6241155;28;20033;-76
2021/05/14 01:53:52;;;;;;;0.20;0.20;;;21.60;51.40;;;;;;6240787;28;20090;-76
2021/05/14 01:56:53;;;;;;;0.20;0.20;;;21.60;51.40;;;;;;6242307;28;20083;-76
2021/05/14 01:59:53;;;;;;;0.30;0.20;;;21.60;51.40;;;;;;6241143;28;20120;-76
2021/05/14 02:02:54;;;;;;;0.57;0.22;;;21.60;51.40;;;;;;6240852;28;20029;-76
2021/05/14 02:05:55;;;;;;;0.90;0.20;;;21.60;51.40;;;;;;6246540;28;20021;-76
2021/05/14 02:08:55;;;;;;;0.35;0.35;;;21.60;51.40;;;;;;6247151;28;20033;-76
2021/05/14 02:11:56;;;;;;;0.30;0.30;;;21.60;51.50;;;;;;6247599;28;20022;-76
2021/05/14 02:14:56;;;;;;;1.23;0.25;;;21.60;51.40;;;;;;6245367;28;20029;-76
2021/05/14 02:17:57;;;;;;;0.20;0.20;;;21.60;51.40;;;;;;6246877;28;20057;-76
2021/05/14 02:20:57;;;;;;;0.20;0.20;;;21.60;51.40;;;;;;6246420;28;20021;-76
2021/05/14 02:23:58;;;;;;;0.55;0.22;;;21.60;51.40;;;;;;6246605;28;20022;-75
2021/05/14 02:26:58;;;;;;;0.20;0.20;;;21.60;51.40;;;;;;6246920;28;20026;-75
2021/05/14 02:30:01;;;;;;;0.30;0.22;;;21.60;51.50;;;;;;6246675;28;20433;-75
2021/05/14 02:33:01;;;;;;;0.22;0.22;;;21.60;51.50;;;;;;6247016;28;20041;-76
2021/05/14 02:36:02;;;;;;;0.32;0.20;;;21.60;51.50;;;;;;6246231;28;20060;-76
2021/05/14 02:39:05;;;;;;;0.25;0.25;;;21.60;51.40;;;;;;6246641;28;20038;-76
2021/05/14 02:42:06;;;;;;;0.20;0.20;;;21.60;51.40;;;;;;6246678;28;20025;-76
2021/05/14 02:45:08;;;;;;;0.28;0.20;;;21.60;51.50;;;;;;6246251;28;20021;-76
2021/05/14 02:48:09;;;;;;;0.20;0.20;;;21.60;51.50;;;;;;6247022;28;20025;-75
2021/05/14 02:51:10;;;;;;;0.30;0.20;;;21.60;51.50;;;;;;6245897;28;20029;-76
2021/05/14 02:54:11;;;;;;;0.13;0.13;;;21.60;51.50;;;;;;6243692;28;20069;-76
2021/05/14 02:57:11;;;;;;;0.10;0.10;;;21.60;51.50;;;;;;6245416;28;20053;-76
2021/05/14 03:00:12;;;;;;;0.20;0.20;;;21.60;51.50;;;;;;6245968;28;20030;-76
2021/05/14 03:03:13;;;;;;;0.52;0.20;;;21.60;51.50;;;;;;6246387;28;20424;-75
2021/05/14 03:06:13;;;;;;;0.40;0.20;;;21.60;51.60;;;;;;6248831;28;20025;-76
2021/05/14 03:09:14;;;;;;;0.10;0.10;;;21.60;51.50;;;;;;6245741;28;20033;-76
2021/05/14 03:12:15;;;;;;;0.10;0.10;;;21.60;51.50;;;;;;6245235;28;20384;-76
2021/05/14 03:15:16;;;;;;;0.20;0.20;;;21.60;51.50;;;;;;6244610;28;20381;-76
2021/05/14 03:18:16;;;;;;;0.30;0.15;;;21.60;51.50;;;;;;6244346;28;20036;-76
2021/05/14 03:21:17;;;;;;;0.20;0.20;;;21.60;51.50;;;;;;6240391;28;20026;-76
2021/05/14 03:24:18;;;;;;;0.20;0.20;;;21.60;51.50;;;;;;6245388;28;20114;-76
2021/05/14 03:27:18;;;;;;;0.10;0.10;;;21.60;51.50;;;;;;6240742;28;20025;-76
2021/05/14 03:30:19;;;;;;;0.20;0.20;;;21.60;51.50;;;;;;6244087;28;20076;-75
2021/05/14 03:33:20;;;;;;;0.10;0.10;;;21.60;51.50;;;;;;6245754;28;20033;-76
2021/05/14 03:36:21;;;;;;;0.20;0.20;;;21.60;51.50;;;;;;6243392;28;20096;-76
2021/05/14 03:39:25;;;;;;;0.10;0.10;;;21.60;51.50;;;;;;6243247;28;20030;-76
2021/05/14 03:42:26;;;;;;;0.20;0.20;;;21.60;51.50;;;;;;6244778;28;20022;-76
2021/05/14 03:45:27;;;;;;;0.13;0.13;;;21.60;51.50;;;;;;6243884;28;20036;-76
2021/05/14 03:48:28;;;;;;;0.17;0.17;;;21.60;51.50;;;;;;6244549;28;20071;-76
2021/05/14 03:51:29;;;;;;;0.57;0.20;;;21.60;51.50;;;;;;6244180;28;20484;-75
2021/05/14 03:54:29;;;;;;;0.35;0.17;;;21.60;51.50;;;;;;6244674;28;20037;-76
2021/05/14 03:57:30;;;;;;;0.20;0.13;;;21.60;51.50;;;;;;6244235;28;20023;-76
2021/05/14 04:00:46;;;;;;;0.20;0.20;;;21.60;51.50;;;;;;6244731;28;20120;-76
2021/05/14 04:03:48;;;;;;;0.45;0.35;;;21.60;51.50;;;;;;6259679;28;20391;-76
2021/05/14 04:06:49;;;;;;;0.10;0.10;;;21.60;51.50;;;;;;6244697;28;20033;-76
2021/05/14 04:16:38;;;;;;;0.17;0.17;;;21.60;51.50;;;;;;6244255;28;20033;-76
2021/05/14 04:19:38;;;;;;;0.15;0.10;;;21.60;51.50;;;;;;6244436;28;20063;-76
2021/05/14 04:22:39;;;;;;;0.57;0.20;;;21.60;51.50;;;;;;6243616;28;20025;-76
2021/05/14 04:25:40;;;;;;;0.10;0.10;;;21.60;51.60;;;;;;6243781;28;20033;-75
2021/05/14 04:28:40;;;;;;;0.20;0.20;;;21.60;51.50;;;;;;6243564;28;20059;-76
2021/05/14 04:31:42;;;;;;;0.10;0.10;;;21.60;51.50;;;;;;6239446;28;20029;-75
2021/05/14 04:34:43;;;;;;;0.25;0.20;;;21.60;51.50;;;;;;6243585;28;20029;-76
2021/05/14 04:37:43;;;;;;;0.20;0.20;;;21.60;51.50;;;;;;6243492;28;20441;-75
2021/05/14 04:40:44;;;;;;;0.10;0.10;;;21.60;51.50;;;;;;6243297;28;20029;-76
2021/05/14 04:43:45;;;;;;;0.22;0.10;;;21.60;51.50;;;;;;6243223;28;20038;-76
2021/05/14 04:46:45;;;;;;;0.10;0.10;;;21.60;51.50;;;;;;6241447;28;20036;-76
2021/05/14 04:49:46;;;;;;;0.20;0.20;;;21.60;51.50;;;;;;6243452;28;20025;-76
2021/05/14 04:52:47;;;;;;;0.30;0.25;;;21.60;51.50;;;;;;6243173;28;20045;-75
2021/05/14 04:55:47;;;;;;;0.10;0.10;;;21.60;51.50;;;;;;6243154;28;20104;-75
2021/05/14 04:58:48;;;;;;;0.10;0.10;;;21.60;51.50;;;;;;6243057;28;20025;-76
2021/05/14 05:01:49;;;;;;;0.10;0.10;;;21.60;51.50;;;;;;6234449;28;20048;-76
2021/05/14 05:04:49;;;;;;;0.10;0.10;;;21.60;51.50;;;;;;6240356;28;20496;-76
2021/05/14 05:07:50;;;;;;;0.10;0.10;;;21.60;51.50;;;;;;6241766;28;20404;-76
2021/05/14 05:10:50;;;;;;;0.10;0.10;;;21.60;51.50;;;;;;6243129;28;20071;-76
2021/05/14 05:13:51;;;;;;;0.10;0.10;;;21.60;51.60;;;;;;6242680;28;20041;-76
2021/05/14 05:16:52;;;;;;;1.27;0.20;;;21.60;51.50;;;;;;6243007;28;20029;-76
2021/05/14 05:19:52;;;;;;;0.05;0.05;;;21.60;51.60;;;;;;6242989;28;20403;-76
2021/05/14 05:22:53;;;;;;;0.10;0.10;;;21.60;51.50;;;;;;6242613;28;20128;-76
2021/05/14 05:25:53;;;;;;;0.10;0.10;;;21.60;51.60;;;;;;6243376;28;20092;-75
2021/05/14 05:28:54;;;;;;;0.10;0.10;;;21.60;51.60;;;;;;6242681;28;20048;-75
2021/05/14 05:31:54;;;;;;;0.10;0.10;;;21.60;51.50;;;;;;6243725;28;20036;-76
2021/05/14 05:34:56;;;;;;;0.10;0.10;;;21.60;51.50;;;;;;6243029;28;20041;-76
2021/05/14 05:37:57;;;;;;;0.10;0.10;;;21.60;51.50;;;;;;6246190;28;20112;-75
2021/05/14 05:40:57;;;;;;;0.22;0.20;;;21.60;51.50;;;;;;6248523;28;20029;-76
2021/05/14 05:43:58;;;;;;;0.10;0.10;;;21.60;51.50;;;;;;6247932;28;20507;-76
2021/05/14 05:46:58;;;;;;;0.10;0.10;;;21.60;51.50;;;;;;6248366;28;20068;-76
2021/05/14 05:49:59;;;;;;;0.10;0.10;;;21.60;51.50;;;;;;6235405;28;20037;-76
2021/05/14 05:53:00;;;;;;;0.20;0.20;;;21.60;51.60;;;;;;6245328;28;20030;-76
2021/05/14 05:56:00;;;;;;;0.28;0.10;;;21.60;51.60;;;;;;6245865;28;20052;-76
2021/05/14 05:59:01;;;;;;;0.98;0.20;;;21.60;51.50;;;;;;6244243;28;20100;-76
2021/05/14 06:02:02;;;;;;;0.40;0.30;;;21.60;51.60;;;;;;6250159;28;20079;-76
2021/05/14 06:05:03;;;;;;;0.10;0.10;;;21.60;51.50;;;;;;6257567;28;20369;-76
2021/05/14 06:08:04;;;;;;;0.10;0.10;;;21.60;51.70;;;;;;6249345;28;20362;-77
2021/05/14 06:11:04;;;;;;;0.10;0.10;;;21.60;51.70;;;;;;6249561;28;20048;-76
2021/05/14 06:14:05;;;;;;;0.30;0.20;;;21.60;51.60;;;;;;6249726;28;20048;-76
2021/05/14 06:17:11;;;;;;;0.25;0.20;;;21.60;51.60;;;;;;6249506;28;20036;-76
2021/05/14 06:20:15;;;;;;;0.30;0.20;;;21.60;51.60;;;;;;6249776;28;20027;-76
2021/05/14 06:23:16;;;;;;;0.10;0.10;;;21.60;51.60;;;;;;6249622;28;20053;-76
2021/05/14 06:26:16;;;;;;;0.10;0.10;;;21.60;51.60;;;;;;6248216;28;20392;-76
2021/05/14 06:29:17;;;;;;;0.55;0.10;;;21.60;51.60;;;;;;6244864;28;20035;-76
2021/05/14 06:32:17;;;;;;;0.22;0.20;;;21.60;51.60;;;;;;6248070;28;20562;-76
2021/05/14 06:35:18;;;;;;;0.40;0.25;;;21.60;51.50;;;;;;6248935;28;20087;-75
2021/05/14 06:38:18;;;;;;;0.30;0.13;;;21.60;51.50;;;;;;6249377;28;20104;-77
2021/05/14 06:41:19;;;;;;;0.55;0.20;;;21.60;51.50;;;;;;6248642;28;20531;-76
2021/05/14 06:44:19;;;;;;;0.30;0.13;;;21.60;51.50;;;;;;6249043;28;20068;-76
2021/05/14 06:47:20;;;;;;;0.17;0.17;;;21.60;51.50;;;;;;6250622;28;20021;-76
2021/05/14 06:50:21;;;;;;;0.20;0.13;;;21.60;51.50;;;;;;6249261;28;20032;-75
2021/05/14 06:53:21;;;;;;;0.52;0.30;;;21.60;51.50;;;;;;6222219;28;20072;-77
2021/05/14 06:56:22;;;;;;;2.42;0.20;;;21.60;51.80;;;;;;6246289;28;20388;-77
2021/05/14 06:59:23;;;;;;;0.30;0.15;;;21.60;51.60;;;;;;6250842;28;20113;-76
2021/05/14 07:02:24;;;;;;;0.10;0.10;;;21.60;51.60;;;;;;6251534;28;20100;-76
2021/05/14 07:05:24;;;;;;;0.43;0.17;;;21.70;51.70;;;;;;6255492;28;20025;-76
2021/05/14 07:08:25;;;;;;;0.20;0.20;;;21.60;51.60;;;;;;6275218;28;20129;-76
2021/05/14 07:11:25;;;;;;;0.20;0.20;;;21.60;51.60;;;;;;6263760;28;20021;-76
2021/05/14 07:14:26;;;;;;;1.00;0.10;;;21.60;51.60;;;;;;6249371;28;20104;-76
2021/05/14 07:17:26;;;;;;;0.40;0.22;;;21.60;51.60;;;;;;6248695;28;20021;-76
2021/05/14 07:20:27;;;;;;;3.00;0.25;;;21.60;51.60;;;;;;6249753;28;20021;-76
2021/05/14 07:23:28;;;;;;;0.15;0.15;;;21.60;51.50;;;;;;6249281;28;20419;-76
2021/05/14 07:26:28;;;;;;;0.10;0.10;;;21.60;51.60;;;;;;6250326;28;20472;-76
2021/05/14 07:29:29;;;;;;;0.10;0.10;;;21.60;51.60;;;;;;6248968;28;20029;-76
2021/05/14 07:32:30;;;;;;;0.20;0.20;;;21.60;51.60;;;;;;6248923;28;20038;-76
2021/05/14 07:35:30;;;;;;;0.30;0.13;;;21.60;51.60;;;;;;6248338;28;20042;-77
2021/05/14 07:38:31;;;;;;;2.33;0.20;;;21.60;51.60;;;;;;6249953;28;20083;-77
2021/05/14 07:41:32;;;;;;;0.30;0.20;;;21.60;51.60;;;;;;6237901;28;20025;-76
2021/05/14 07:44:33;;;;;;;0.20;0.20;;;21.60;51.60;;;;;;6243543;28;20376;-77
2021/05/14 07:47:36;;;;;;;0.30;0.20;;;21.60;51.60;;;;;;6244840;28;20021;-76
2021/05/14 07:50:44;;;;;;;0.35;0.20;;;21.60;51.60;;;;;;6262864;28;20029;-76
2021/05/14 07:53:44;;;;;;;1.67;0.30;;;21.60;51.60;;;;;;6245583;28;20112;-76
2021/05/14 07:56:45;;;;;;;0.20;0.20;;;21.60;51.60;;;;;;6244602;28;20055;-76
2021/05/14 07:59:47;;;;;;;0.17;0.17;;;21.60;51.60;;;;;;6245766;28;20080;-77
2021/05/14 08:02:48;;;;;;;0.20;0.20;;;21.60;51.60;;;;;;6246187;28;20108;-76
2021/05/14 08:05:50;;;;;;;0.22;0.22;;;21.60;51.60;;;;;;6245772;28;20045;-77
2021/05/14 08:08:51;;;;;;;0.22;0.20;;;21.60;51.70;;;;;;6242693;28;20029;-76
2021/05/14 08:11:52;;;;;;;0.85;0.28;;;21.60;51.60;;;;;;6245086;28;20021;-76
2021/05/14 08:14:55;;;;;;;1.55;0.13;;;21.60;51.60;;;;;;6244852;28;20120;-76
2021/05/14 08:17:56;;;;;;;0.40;0.30;;;21.60;51.60;;;;;;6246065;28;20120;-78
2021/05/14 08:20:56;;;;;;;0.43;0.30;;;21.70;51.70;;;;;;6246252;28;20025;-77
2021/05/14 08:23:57;;;;;;;0.15;0.13;;;21.60;51.60;;;;;;6245318;28;20094;-76
2021/05/14 08:26:58;;;;;;;1.25;0.30;;;21.60;51.70;;;;;;6244963;28;20040;-77
2021/05/14 08:29:58;;;;;;;0.35;0.17;;;21.60;51.70;;;;;;6245140;28;20037;-76
2021/05/14 08:32:59;;;;;;;0.20;0.20;;;21.60;51.70;;;;;;6245037;28;20034;-76
2021/05/14 08:35:59;;;;;;;0.20;0.20;;;21.60;51.60;;;;;;6246453;28;20484;-77
2021/05/14 08:39:00;;;;;;;0.20;0.20;;;21.60;51.60;;;;;;6244966;28;20496;-76
2021/05/14 08:42:02;;;;;;;0.10;0.10;;;21.60;51.70;;;;;;6246970;28;20376;-76
2021/05/14 08:45:03;;;;;;;0.20;0.20;;;21.60;51.60;;;;;;6246672;28;20064;-77
2021/05/14 08:48:11;;;;;;;0.10;0.10;;;21.60;51.60;;;;;;6245054;28;20026;-77
2021/05/14 08:51:13;;;;;;;0.10;0.10;;;21.60;51.70;;;;;;6246930;28;20021;-76
2021/05/14 08:54:13;;;;;;;0.70;0.20;;;21.60;51.70;;;;;;6246033;28;20029;-77
2021/05/14 08:57:14;;;;;;;0.17;0.17;;;21.60;51.70;;;;;;6245636;28;20026;-76
2021/05/14 09:00:15;;;;;;;0.75;0.30;;;21.60;51.70;;;;;;6246565;28;20047;-76
2021/05/14 09:03:15;;;;;;;0.20;0.20;;;21.60;51.70;;;;;;6245771;28;20079;-76
2021/05/14 09:06:32;;;;;;;0.82;0.30;;;21.60;51.70;;;;;;6246698;28;20469;-76
2021/05/14 09:09:33;;;;;;;0.20;0.20;;;21.60;51.70;;;;;;6245933;28;20033;-76
2021/05/14 09:12:38;;;;;;;0.20;0.20;;;21.60;51.60;;;;;;6243014;28;20435;-77
2021/05/14 09:15:41;;;;;;;0.40;0.35;;;21.60;51.60;;;;;;6240113;28;20053;-76
2021/05/14 09:18:43;;;;;;;0.20;0.20;;;21.60;51.60;;;;;;6245005;28;20037;-77
2021/05/14 09:21:44;;;;;;;0.13;0.13;;;21.60;51.70;;;;;;6245602;28;20117;-77
2021/05/14 09:24:55;;;;;;;0.55;0.20;;;21.60;51.70;;;;;;6244871;28;20521;-77
2021/05/14 09:27:55;;;;;;;0.10;0.10;;;21.60;51.60;;;;;;6247004;28;20053;-76
2021/05/14 09:31:17;;;;;;;0.50;0.20;;;21.60;51.70;;;;;;6247005;28;20502;-77
2021/05/14 09:34:17;;;;;;;0.10;0.10;;;21.60;51.70;;;;;;6246562;28;20044;-77
2021/05/14 09:37:19;;;;;;;0.20;0.20;;;21.60;51.60;;;;;;6245615;28;20516;-77
2021/05/14 09:40:22;;;;;;;0.20;0.20;;;21.60;51.70;;;;;;6245494;28;20033;-76
2021/05/14 09:43:25;;;;;;;0.20;0.20;;;21.60;51.60;;;;;;6245739;28;20025;-76
2021/05/14 09:46:27;;;;;;;0.20;0.20;;;21.60;51.70;;;;;;6244497;28;20385;-76
2021/05/14 09:49:28;;;;;;;0.93;0.25;;;21.60;51.70;;;;;;6240789;28;20033;-76
2021/05/14 09:52:29;;;;;;;0.20;0.20;;;21.60;51.70;;;;;;6246305;28;20121;-76
2021/05/14 09:55:30;;;;;;;0.65;0.20;;;21.60;51.70;;;;;;6245302;28;20380;-77
2021/05/14 09:58:31;;;;;;;0.32;0.20;;;21.60;51.70;;;;;;6245327;28;20022;-77
2021/05/14 10:01:32;;;;;;;0.63;0.20;;;21.60;51.70;;;;;;6245416;28;20029;-76
2021/05/14 10:04:36;;;;;;;0.20;0.20;;;21.60;51.70;;;;;;6244756;28;20032;-76
2021/05/14 10:07:37;;;;;;;0.20;0.17;;;21.60;51.70;;;;;;6245718;28;20083;-76
2021/05/14 10:10:39;;;;;;;0.20;0.20;;;21.60;51.70;;;;;;6245106;28;20562;-76
2021/05/14 10:13:41;;;;;;;0.40;0.20;;;21.60;51.70;;;;;;6241748;28;20034;-76
2021/05/14 10:16:41;;;;;;;0.10;0.10;;;21.70;51.70;;;;;;6244695;28;20072;-76
2021/05/14 10:19:43;;;;;;;0.20;0.20;;;21.60;51.60;;;;;;6244722;28;20029;-76
2021/05/14 10:22:45;;;;;;;0.20;0.20;;;21.60;51.70;;;;;;6244043;28;20114;-76
2021/05/14 10:25:50;;;;;;;0.47;0.20;;;21.60;51.70;;;;;;6249548;28;20432;-76
2021/05/14 10:28:50;;;;;;;0.25;0.25;;;21.60;51.70;;;;;;6249421;28;20113;-76
2021/05/14 10:31:51;;;;;;;0.57;0.30;;;21.60;51.70;;;;;;6248210;28;20440;-76
2021/05/14 10:35:03;;;;;;;0.28;0.22;;;21.60;51.70;;;;;;6248696;28;20053;-77
2021/05/14 10:38:05;;;;;;;0.30;0.30;;;21.60;51.70;;;;;;6243875;28;20033;-77
2021/05/14 10:41:28;;;;;;;0.57;0.30;;;21.60;51.70;;;;;;6238593;28;20045;-75
2021/05/14 10:44:52;;;;;;;0.43;0.25;;;21.60;51.70;;;;;;6243586;28;20053;-76
2021/05/14 10:47:56;;;;;;;2.90;0.45;;;21.70;51.90;;;;;;6245891;28;20430;-76
2021/05/14 10:51:01;;;;;;;0.20;0.20;;;21.60;51.70;;;;;;6246719;28;20029;-76
2021/05/14 10:54:01;;;;;;;0.40;0.20;;;21.60;51.70;;;;;;6245673;28;20073;-76
2021/05/14 10:57:02;;;;;;;1.67;0.20;;;21.60;51.60;;;;;;6245036;28;20026;-77
2021/05/14 11:00:25;;;;;;;0.88;0.30;;;21.60;51.60;;;;;;6246093;28;20552;-76
2021/05/14 11:03:31;;;;;;;1.15;0.40;;;21.60;51.60;;;;;;6245316;28;20064;-77
2021/05/14 11:06:48;;;;;;;1.67;0.20;;;21.60;51.60;;;;;;6245252;28;20025;-77
2021/05/14 11:10:14;;;;;;;1.20;0.35;;;21.60;51.60;;;;;;6245764;28;20482;-77
2021/05/14 11:13:35;;;;;;;0.20;0.20;;;21.60;51.60;;;;;;6246041;28;20034;-77
2021/05/14 11:16:45;;;;;;;0.85;0.30;;;21.60;51.60;;;;;;6240340;28;20034;-77
2021/05/14 11:19:54;;;;;;;0.28;0.20;;;21.70;51.70;;;;;;6244976;28;20026;-77
2021/05/14 11:22:55;;;;;;;1.27;0.20;;;21.60;51.60;;;;;;6244539;28;20028;-76
2021/05/14 11:25:56;;;;;;;0.88;0.30;;;21.60;51.60;;;;;;6245101;28;20056;-77
2021/05/14 11:28:56;;;;;;;3.78;0.35;;;21.60;51.60;;;;;;6245632;28;20022;-76
2021/05/14 11:32:21;;;;;;;0.65;0.30;;;21.60;52.20;;;;;;6243735;28;20028;-77
2021/05/14 11:35:23;;;;;;;1.35;0.40;;;21.60;51.60;;;;;;6259105;28;20562;-76
2021/05/14 11:38:23;;;;;;;0.50;0.35;;;21.70;51.60;;;;;;6260979;28;20029;-76
2021/05/14 11:41:32;;;;;;;1.27;0.40;;;21.60;51.60;;;;;;6245512;28;20033;-76
2021/05/14 11:44:32;;;;;;;0.60;0.40;;;21.60;51.60;;;;;;6244246;28;20025;-76
2021/05/14 11:47:33;;;;;;;0.47;0.32;;;21.60;51.60;;;;;;6245473;28;20025;-76
2021/05/14 11:50:36;;;;;;;0.20;0.20;;;21.60;51.60;;;;;;6245341;28;20022;-76
2021/05/14 11:53:37;;;;;;;0.32;0.28;;;21.70;51.60;;;;;;6244942;28;20076;-77
2021/05/14 11:56:37;;;;;;;0.32;0.30;;;21.70;51.60;;;;;;6242977;28;20033;-76
2021/05/14 11:59:44;;;;;;;0.90;0.40;;;21.60;51.60;;;;;;6243585;28;20033;-76
2021/05/14 12:02:46;;;;;;;0.30;0.30;;;21.60;51.60;;;;;;6239858;28;20478;-77
2021/05/14 12:05:48;;;;;;;1.02;0.50;;;21.60;51.60;;;;;;6243912;28;20030;-76
2021/05/14 12:08:49;;;;;;;0.40;0.20;;;21.60;51.60;;;;;;6242325;28;20025;-77
2021/05/14 12:11:49;;;;;;;1.25;0.40;;;21.60;51.70;;;;;;6243787;28;20105;-76
2021/05/14 12:14:50;;;;;;;0.40;0.30;;;21.60;51.60;;;;;;6243174;28;20067;-77
2021/05/14 12:17:58;;;;;;;1.30;0.40;;;21.70;51.70;;;;;;6243137;28;20033;-77
2021/05/14 12:21:00;;;;;;;0.98;0.45;;;21.60;51.60;;;;;;6242486;28;20443;-76
2021/05/14 12:24:18;;;;;;;1.75;0.40;;;21.60;51.60;;;;;;6240185;28;20488;-77
2021/05/14 12:27:22;;;;;;;1.70;0.50;;;21.70;51.70;;;;;;6245220;28;20485;-76
2021/05/14 12:30:38;;;;;;;1.23;0.45;;;21.60;51.60;;;;;;6243044;28;20078;-76
2021/05/14 12:33:50;;;;;;;0.82;0.60;;;21.60;51.60;;;;;;6242864;28;20041;-76
2021/05/14 12:36:53;;;;;;;1.23;0.63;;;21.60;51.60;;;;;;6242007;28;20057;-77
2021/05/14 12:39:53;;;;;;;2.53;0.95;;;21.70;52.20;;;;;;6242722;28;20038;-77
2021/05/14 12:43:07;;;;;;;2.53;1.17;;;21.70;51.90;;;;;;6243946;28;20133;-77
2021/05/14 12:46:08;;;;;;;1.95;0.90;;;21.70;51.70;;;;;;6242311;28;20025;-76
2021/05/14 12:49:10;;;;;;;5.10;1.45;;;21.70;51.50;;;;;;6244562;28;20067;-77
2021/05/14 12:52:13;;;;;;;3.75;1.65;;;21.80;51.50;;;;;;6244499;28;20144;-77
2021/05/14 12:55:15;;;;;;;4.95;1.85;;;21.80;51.40;;;;;;6241854;28;20042;-77
2021/05/14 12:58:16;;;;;;;4.05;1.90;;;21.80;51.40;;;;;;6243889;28;20439;-78
2021/05/14 13:01:23;;;;;;;4.70;2.00;;;21.80;51.40;;;;;;6244666;28;20025;-77
2021/05/14 13:04:29;;;;;;;4.65;1.83;;;21.80;51.40;;;;;;6244635;28;20136;-76
2021/05/14 13:07:30;;;;;;;3.35;1.45;;;21.80;51.40;;;;;;6244021;28;20022;-76
2021/05/14 13:10:40;;;;;;;4.32;1.65;;;21.80;51.50;;;;;;6227436;28;20395;-76
2021/05/14 13:13:40;;;;;;;2.78;1.10;;;21.80;51.60;;;;;;6243501;28;20044;-76
2021/05/14 13:16:41;;;;;;;3.88;1.55;;;21.80;51.50;;;;;;6243265;28;20025;-76
2021/05/14 13:19:41;;;;;;;2.95;1.30;;;21.70;51.50;;;;;;6242869;28;20056;-76
2021/05/14 13:22:43;;;;;;;4.55;1.45;;;21.80;51.60;;;;;;6237918;28;20026;-76
2021/05/14 13:25:43;;;;;;;4.50;1.60;;;21.70;51.50;;;;;;6243364;28;20022;-76
2021/05/14 13:28:46;;;;;;;2.83;1.30;;;21.70;51.50;;;;;;6243295;28;20025;-76
2021/05/14 13:31:46;;;;;;;3.88;1.50;;;21.70;51.50;;;;;;6243852;28;20499;-76
2021/05/14 13:34:47;;;;;;;2.22;1.30;;;21.70;51.50;;;;;;6242569;28;20029;-77
2021/05/14 13:37:47;;;;;;;3.00;1.50;;;21.70;51.50;;;;;;6243303;28;20533;-76
2021/05/14 13:40:48;;;;;;;2.97;1.25;;;21.70;51.50;;;;;;6242154;28;20025;-76
2021/05/14 13:43:48;;;;;;;9.07;1.50;;;21.70;51.50;;;;;;6242357;28;20427;-76
2021/05/14 13:46:49;;;;;;;4.60;1.77;;;21.70;51.50;;;;;;6242544;28;20036;-76
2021/05/14 13:49:49;;;;;;;3.13;1.40;;;21.70;51.50;;;;;;6241550;28;20017;-76
2021/05/14 13:52:50;;;;;;;3.20;1.40;;;21.70;51.60;;;;;;6242892;28;20033;-76
2021/05/14 13:55:52;;;;;;;2.67;1.20;;;21.70;51.60;;;;;;6243253;28;20032;-76
2021/05/14 13:58:52;;;;;;;2.45;1.23;;;21.70;51.50;;;;;;6244408;28;20064;-75
2021/05/14 14:01:53;;;;;;;3.28;1.33;;;21.70;51.50;;;;;;6246168;28;20027;-76
2021/05/14 14:04:53;;;;;;;2.80;1.30;;;21.70;51.50;;;;;;6247781;28;20500;-76
2021/05/14 14:07:54;;;;;;;3.45;1.30;;;21.70;51.60;;;;;;6247537;28;20041;-76
2021/05/14 14:10:54;;;;;;;5.22;1.75;;;21.70;51.60;;;;;;6245636;28;20044;-76
2021/05/14 14:13:56;;;;;;;5.20;1.25;;;21.70;51.60;;;;;;6244621;28;20467;-76
2021/05/14 14:16:57;;;;;;;1.83;1.15;;;21.70;51.60;;;;;;6246697;28;20021;-76
2021/05/14 14:19:58;;;;;;;5.47;1.30;;;21.70;51.60;;;;;;6247000;28;20087;-76
2021/05/14 14:22:59;;;;;;;4.45;1.33;;;21.70;51.60;;;;;;6247190;28;20369;-76
2021/05/14 14:25:59;;;;;;;4.18;1.50;;;21.70;51.60;;;;;;6245976;28;20033;-76
2021/05/14 14:29:01;;;;;;;4.03;1.23;;;21.70;51.60;;;;;;6246895;28;20538;-76
2021/05/14 14:32:02;;;;;;;2.30;1.10;;;21.70;51.60;;;;;;6246409;28;20036;-76
2021/05/14 14:35:04;;;;;;;2.42;1.13;;;21.70;51.60;;;;;;6246902;28;20053;-76
2021/05/14 14:38:04;;;;;;;2.88;1.20;;;21.70;51.60;;;;;;6244775;28;20045;-76
2021/05/14 14:41:05;;;;;;;3.35;1.40;;;21.70;51.60;;;;;;6247325;28;20018;-76
2021/05/14 14:44:06;;;;;;;3.40;1.30;;;21.70;51.60;;;;;;6239622;28;20033;-76
2021/05/14 14:47:06;;;;;;;4.47;1.40;;;21.70;51.70;;;;;;6246292;28;20021;-75
2021/05/14 14:50:08;;;;;;;1.73;0.90;;;21.70;51.70;;;;;;6246191;28;20052;-76
2021/05/14 14:53:08;;;;;;;4.18;1.20;;;21.70;51.70;;;;;;6244879;28;20030;-76
2021/05/14 14:56:09;;;;;;;1.90;1.02;;;21.70;51.70;;;;;;6246714;28;20025;-75
2021/05/14 14:59:10;;;;;;;5.28;1.13;;;21.70;51.70;;;;;;6220854;28;20030;-75
2021/05/14 15:02:10;;;;;;;3.60;1.20;;;21.70;51.70;;;;;;6243212;28;20036;-76
2021/05/14 15:05:12;;;;;;;7.03;1.30;;;21.70;51.00;;;;;;6246344;28;20042;-76
2021/05/14 15:08:12;;;;;;;6.25;1.02;;;21.70;51.20;;;;;;6246644;28;20025;-77
2021/05/14 15:11:13;;;;;;;7.28;1.08;;;21.70;50.10;;;;;;6245861;28;20392;-76
2021/05/14 15:14:13;;;;;;;2.13;1.00;;;21.70;51.40;;;;;;6245667;28;20112;-77
2021/05/14 15:17:14;;;;;;;2.67;1.00;;;21.70;52.10;;;;;;6244861;28;20116;-76
2021/05/14 15:20:15;;;;;;;6.45;1.10;;;21.70;51.40;;;;;;6246727;28;20076;-76
2021/05/14 15:23:18;;;;;;;6.20;1.15;;;21.70;51.40;;;;;;6245858;28;20079;-77
2021/05/14 15:26:19;;;;;;;3.92;0.80;;;21.70;51.40;;;;;;6245503;28;20060;-77
2021/05/14 15:29:19;;;;;;;2.95;0.70;;;21.70;51.40;;;;;;6243688;28;20575;-76
2021/05/14 15:32:23;;;;;;;4.20;1.13;;;21.70;51.50;;;;;;6244854;28;20079;-76
2021/05/14 15:35:24;;;;;;;3.83;0.95;;;21.70;51.50;;;;;;6245568;28;20045;-76
2021/05/14 15:38:24;;;;;;;3.63;1.10;;;21.70;51.50;;;;;;6244648;28;20033;-76
2021/05/14 15:41:25;;;;;;;1.63;0.80;;;21.70;51.50;;;;;;6245847;28;20120;-76
2021/05/14 15:44:26;;;;;;;2.13;0.90;;;21.70;51.50;;;;;;6245406;28;20473;-76
2021/05/14 15:47:27;;;;;;;1.05;0.60;;;21.70;51.50;;;;;;6244441;28;20017;-76
2021/05/14 15:50:27;;;;;;;2.05;0.60;;;21.70;51.50;;;;;;6243666;28;20049;-76
2021/05/14 15:53:28;;;;;;;5.03;0.80;;;21.70;51.50;;;;;;6244334;28;20044;-76
2021/05/14 15:56:28;;;;;;;1.60;0.80;;;21.70;51.50;;;;;;6245777;28;20025;-77